createdAt,value
2022-08-03T00:00:41.207Z,4.20
2022-08-03T00:05:40.736Z,4.73
2022-08-03T00:10:58.900Z,4.87
2022-08-03T00:15:56.954Z,4.67
2022-08-03T00:20:56.336Z,3.90
2022-08-03T00:25:54.552Z,3.90
2022-08-03T00:30:52.691Z,4.17
2022-08-03T00:35:51.272Z,4.60
2022-08-03T00:40:50.766Z,4.57
2022-08-03T00:45:51.012Z,4.17
2022-08-03T00:50:49.224Z,4.47
2022-08-03T00:55:53.656Z,4.10
2022-08-03T01:00:52.008Z,4.47
2022-08-03T01:05:56.194Z,4.07
2022-08-03T01:11:07.650Z,3.83
2022-08-03T01:16:10.761Z,4.73
2022-08-03T01:21:13.681Z,4.83
2022-08-03T01:26:36.160Z,4.07
2022-08-03T01:32:59.700Z,3.83
2022-08-03T01:37:04.306Z,3.83
2022-08-03T01:42:06.165Z,3.20
2022-08-03T01:47:07.512Z,3.70
2022-08-03T01:52:07.374Z,3.80
2022-08-03T01:57:06.989Z,4.07
2022-08-03T02:02:19.526Z,3.80
2022-08-03T02:07:27.870Z,3.60
2022-08-03T02:12:27.758Z,3.90
2022-08-03T02:17:39.174Z,3.70
2022-08-03T02:22:41.468Z,3.90
2022-08-03T02:27:44.098Z,3.30
2022-08-03T02:32:48.970Z,3.30
2022-08-03T02:37:52.952Z,4.10
2022-08-03T02:42:54.503Z,3.83
2022-08-03T02:47:56.456Z,3.93
2022-08-03T02:52:57.370Z,3.27
2022-08-03T02:57:56.632Z,3.80
2022-08-03T03:03:04.009Z,3.67
2022-08-03T03:08:02.794Z,3.80
2022-08-03T03:13:02.469Z,4.37
2022-08-03T03:18:02.679Z,3.93
2022-08-03T03:23:01.962Z,4.47
2022-08-03T03:28:00.676Z,3.87
2022-08-03T03:33:01.222Z,4.50
2022-08-03T03:37:59.284Z,4.93
2022-08-03T03:42:57.354Z,4.53
2022-08-03T03:47:55.461Z,4.40
2022-08-03T03:52:54.927Z,4.10
2022-08-03T03:57:53.024Z,4.70
2022-08-03T04:02:51.168Z,4.73
2022-08-03T04:08:17.267Z,4.00
2022-08-03T04:13:18.468Z,4.40
2022-08-03T04:18:18.038Z,4.00
2022-08-03T04:23:19.860Z,4.10
2022-08-03T04:28:30.604Z,5.13
2022-08-03T04:33:33.096Z,5.43
2022-08-03T04:38:38.337Z,5.63
2022-08-03T04:43:39.574Z,5.23
2022-08-03T04:48:37.825Z,5.03
2022-08-03T04:53:38.091Z,5.13
2022-08-03T04:58:36.232Z,5.20
2022-08-03T05:03:34.265Z,4.80
2022-08-03T05:08:32.200Z,4.73
2022-08-03T05:13:31.604Z,5.40
2022-08-03T05:18:29.728Z,4.67
2022-08-03T05:23:27.778Z,4.90
2022-08-03T05:28:25.873Z,4.20
2022-08-03T05:33:25.264Z,4.10
2022-08-03T05:38:24.253Z,4.47
2022-08-03T05:43:27.470Z,4.47
2022-08-03T05:48:26.836Z,4.17
2022-08-03T05:53:24.894Z,3.60
2022-08-03T05:58:23.008Z,3.57
2022-08-03T06:03:21.176Z,3.53
2022-08-03T06:08:21.725Z,3.17
2022-08-03T06:13:19.695Z,2.93
2022-08-03T06:18:17.819Z,2.63
2022-08-03T06:23:17.866Z,3.07
2022-08-03T06:28:51.191Z,3.17
2022-08-03T06:34:22.869Z,3.40
2022-08-03T06:38:54.356Z,3.60
2022-08-03T06:44:03.117Z,2.60
2022-08-03T06:49:02.209Z,2.63
2022-08-03T06:54:00.357Z,2.23
2022-08-03T06:58:59.770Z,2.33
2022-08-03T07:03:57.768Z,2.13
2022-08-03T07:08:59.422Z,2.40
2022-08-03T07:13:59.071Z,2.10
2022-08-03T07:18:57.211Z,2.10
2022-08-03T07:23:55.281Z,1.93
2022-08-03T07:28:53.362Z,2.00
2022-08-03T07:33:52.931Z,2.27
2022-08-03T07:38:51.062Z,2.20
2022-08-03T07:43:49.159Z,1.83
2022-08-03T07:48:47.271Z,2.00
2022-08-03T07:53:48.043Z,3.40
2022-08-03T07:58:46.656Z,2.50
2022-08-03T08:03:53.461Z,1.73
2022-08-03T08:08:53.632Z,1.67
2022-08-03T08:13:51.621Z,2.10
2022-08-03T08:18:49.696Z,2.40
2022-08-03T08:23:57.077Z,2.03
2022-08-03T08:28:57.587Z,2.10
2022-08-03T08:34:04.336Z,1.80
2022-08-03T08:39:03.226Z,1.73
2022-08-03T08:44:02.904Z,2.13
2022-08-03T08:49:04.790Z,2.10
2022-08-03T08:54:04.256Z,2.60
2022-08-03T08:59:03.781Z,1.60
2022-08-03T09:04:01.900Z,1.97
2022-08-03T09:09:00.025Z,1.73
2022-08-03T09:13:58.032Z,2.00
2022-08-03T09:19:12.304Z,1.77
2022-08-03T09:24:25.656Z,1.90
2022-08-03T09:29:32.926Z,1.70
2022-08-03T09:34:32.483Z,2.00
2022-08-03T09:39:42.214Z,2.03
2022-08-03T09:44:42.220Z,1.63
2022-08-03T09:49:43.559Z,1.90
2022-08-03T09:54:42.907Z,1.73
2022-08-03T09:59:41.387Z,1.67
2022-08-03T10:04:50.974Z,1.77
2022-08-03T10:09:56.631Z,1.90
2022-08-03T10:14:55.857Z,2.13
2022-08-03T10:19:55.798Z,1.60
2022-08-03T10:24:57.504Z,1.90
2022-08-03T10:29:57.575Z,2.03
2022-08-03T10:35:18.972Z,1.63
2022-08-03T10:40:47.650Z,1.77
2022-08-03T10:45:43.904Z,1.70
2022-08-03T10:50:44.420Z,1.50
2022-08-03T10:56:01.644Z,1.63
2022-08-03T11:01:00.107Z,1.50
2022-08-03T11:06:17.704Z,1.60
2022-08-03T11:11:29.402Z,1.77
2022-08-03T11:16:28.881Z,1.50
2022-08-03T11:21:59.802Z,1.57
2022-08-03T11:27:19.373Z,1.90
2022-08-03T11:33:07.502Z,1.20
2022-08-03T11:38:24.711Z,1.70
2022-08-03T11:43:45.303Z,1.63
2022-08-03T11:48:45.869Z,1.57
2022-08-03T11:53:47.698Z,1.43
2022-08-03T11:59:19.156Z,1.40
2022-08-03T12:04:08.252Z,1.50
2022-08-03T12:09:17.705Z,1.50
2022-08-03T12:14:49.729Z,1.20
2022-08-03T12:19:43.262Z,1.60
2022-08-03T12:24:43.423Z,1.50
2022-08-03T12:29:41.576Z,1.20
2022-08-03T12:34:49.705Z,1.87
2022-08-03T12:40:02.808Z,1.30
2022-08-03T12:45:20.232Z,1.57
2022-08-03T12:50:26.631Z,1.33
2022-08-03T12:55:57.573Z,1.57
2022-08-03T13:00:56.575Z,1.60
2022-08-03T13:05:54.919Z,1.57
2022-08-03T13:10:54.335Z,1.40
2022-08-03T13:15:52.393Z,1.37
2022-08-03T13:20:50.406Z,1.87
2022-08-03T13:25:55.887Z,1.53
2022-08-03T13:30:55.553Z,1.57
2022-08-03T13:35:53.660Z,1.40
2022-08-03T13:40:53.296Z,1.30
2022-08-03T13:45:56.571Z,1.43
2022-08-03T13:50:57.374Z,1.60
2022-08-03T13:55:55.410Z,2.07
2022-08-03T14:00:53.386Z,1.50
2022-08-03T14:05:51.483Z,1.43
2022-08-03T14:10:51.016Z,1.70
2022-08-03T14:15:49.936Z,1.43
2022-08-03T14:20:51.921Z,1.43
2022-08-03T14:25:55.272Z,1.67
2022-08-03T14:30:54.794Z,1.43
2022-08-03T14:35:53.432Z,1.40
2022-08-03T14:40:51.941Z,1.53
2022-08-03T14:45:53.542Z,1.63
2022-08-03T14:50:52.492Z,1.40
2022-08-03T14:55:51.869Z,1.97
2022-08-03T15:00:52.689Z,1.73
2022-08-03T15:05:50.802Z,1.40
2022-08-03T15:10:49.366Z,1.40
2022-08-03T15:15:48.260Z,1.80
2022-08-03T15:20:49.409Z,1.50
2022-08-03T15:26:02.357Z,2.37
2022-08-03T15:31:07.150Z,1.60
2022-08-03T15:36:07.025Z,1.40
2022-08-03T15:41:05.066Z,1.60
2022-08-03T15:46:28.757Z,1.90
2022-08-03T15:51:26.464Z,1.73
2022-08-03T15:56:24.513Z,1.80
2022-08-03T16:01:26.180Z,2.20
2022-08-03T16:06:29.797Z,1.87
2022-08-03T16:11:35.683Z,1.80
2022-08-03T16:16:34.660Z,2.07
2022-08-03T16:21:41.112Z,1.83
2022-08-03T16:26:48.057Z,1.60
2022-08-03T16:31:51.093Z,1.93
2022-08-03T16:36:49.734Z,1.70
2022-08-03T16:41:54.000Z,1.97
2022-08-03T16:46:59.220Z,1.90
2022-08-03T16:51:57.233Z,2.13
2022-08-03T16:56:58.341Z,1.63
2022-08-03T17:01:56.432Z,1.73
2022-08-03T17:06:55.553Z,2.27
2022-08-03T17:11:53.608Z,2.00
2022-08-03T17:17:00.945Z,2.03
2022-08-03T17:22:03.942Z,2.00
2022-08-03T17:27:08.978Z,1.90
2022-08-03T17:32:10.716Z,2.10
2022-08-03T17:37:50.042Z,2.27
2022-08-03T17:42:32.988Z,2.33
2022-08-03T17:47:42.774Z,2.10
2022-08-03T17:52:48.273Z,2.17
2022-08-03T17:58:01.365Z,2.10
2022-08-03T18:03:18.115Z,3.03
2022-08-03T18:08:24.849Z,3.40
2022-08-03T18:13:25.904Z,2.30
2022-08-03T18:18:33.243Z,2.87
2022-08-03T18:28:50.737Z,2.50
2022-08-03T18:34:19.464Z,3.73
2022-08-03T18:39:11.868Z,4.00
2022-08-03T18:44:52.602Z,2.60
2022-08-03T18:49:41.527Z,3.20
2022-08-03T18:55:02.530Z,3.30
2022-08-03T19:00:12.242Z,3.40
2022-08-03T19:05:12.199Z,3.90
2022-08-03T19:10:15.909Z,4.23
2022-08-03T19:15:17.226Z,4.10
2022-08-03T19:20:36.559Z,3.40
2022-08-03T19:25:39.415Z,2.93
2022-08-03T19:30:40.652Z,3.20
2022-08-03T19:35:54.969Z,2.90
2022-08-03T19:40:58.370Z,4.10
2022-08-03T19:46:06.027Z,3.17
2022-08-03T19:51:12.100Z,4.77
2022-08-03T19:56:12.660Z,3.27
2022-08-03T20:01:21.339Z,4.63
2022-08-03T20:06:23.498Z,3.60
2022-08-03T20:11:28.630Z,4.40
2022-08-03T20:16:27.700Z,4.50
2022-08-03T20:21:31.984Z,3.70
2022-08-03T20:26:31.467Z,4.47
2022-08-03T20:31:32.434Z,3.83
2022-08-03T20:36:35.972Z,4.80
2022-08-03T20:41:36.417Z,4.27
2022-08-03T20:46:50.174Z,4.47
2022-08-03T20:51:54.214Z,4.57
2022-08-03T20:56:53.241Z,4.67
2022-08-03T21:01:51.247Z,4.63
2022-08-03T21:06:57.089Z,4.33
2022-08-03T21:11:59.436Z,4.77
2022-08-03T21:13:05.681Z,2.17
2022-08-03T21:16:59.617Z,4.90
2022-08-03T21:21:58.811Z,4.70
2022-08-03T21:26:59.538Z,5.30
2022-08-03T21:31:59.724Z,5.17
2022-08-03T21:36:58.355Z,5.33
2022-08-03T21:41:57.685Z,4.90
2022-08-03T21:46:57.402Z,5.20
2022-08-03T21:51:58.309Z,4.87
2022-08-03T21:57:04.015Z,5.73
2022-08-03T22:02:02.882Z,4.83
2022-08-03T22:07:02.945Z,5.37
2022-08-03T22:12:02.457Z,5.40
2022-08-03T22:17:03.360Z,5.40
2022-08-03T22:22:06.074Z,5.80
2022-08-03T22:27:23.764Z,5.80
2022-08-03T22:32:22.058Z,5.13
2022-08-03T22:37:22.179Z,5.40
2022-08-03T22:42:22.691Z,6.50
2022-08-03T22:47:22.676Z,6.70
2022-08-03T22:52:22.303Z,5.47
2022-08-03T22:57:23.219Z,5.27
2022-08-03T23:02:23.148Z,6.37
2022-08-03T23:07:23.179Z,6.27
2022-08-03T23:12:24.290Z,6.50
2022-08-03T23:17:24.181Z,6.27
2022-08-03T23:22:30.062Z,6.50
2022-08-03T23:27:32.213Z,7.30
2022-08-03T23:32:31.715Z,6.40
2022-08-03T23:37:30.618Z,5.93
2022-08-03T23:42:30.166Z,6.47
2022-08-03T23:47:46.032Z,6.37
2022-08-03T23:52:53.771Z,6.77
2022-08-03T23:58:04.135Z,6.47
